Lyman, Idaho
Current Conditions -  °F | °C
As of 3:53 PM on Friday 31 Oct 2014 (Local Time) from KRXE Reporting Station
Clear Clear  
Wind Chill: 68°   Ceiling: Unl
Heat Index: 68°   Visibility: 10mi
Dew Point: 24°   Wind: 17mph
Humidity: 19%   Direction: 220°SW
Pressure: 29.87"   Gusts: 26mph
Location:  43.7568°N, 111.624°W
Report Text: KRXE 312153Z AUTO 22015G23KT 10SM CLR 20/M04 A2987 RMK AO2 SLP095 T02001044
Loading
Personal Weather Stations






























Interactive Weather Map
Tropical Storm Tracking
New forecast layout! Learn more

10-Day Weather Forecast

Advertisements
Track Severe Weather on mobile